Airfield :
LOGIN :

Register | Disclaimer

   EN    FR    IT 

 










Legend :    VFR   Marginal VFR   IFR   Intensive IFR   Very Intensive IFR
Visi :
Ceiling :
>= 8 km
>= 3000ft
5 to 8 km
1000 to 3000 ft
1500m to 5 km
500 to 1000 ft
800 to 1500m
200 to 500 ft
< 800m
< 200 ft
Symbols :   Thunderstorms  Fog  Heavy snow  Heavy precipitations  Wind > 20 kt
SIGMETs :     Misc.  Thunderstorms  Icing  Turbulence  Mountain Waves  Volcanic Ashes






- Airport Elevation : 36 ft


EGXV - RAF Leconfield

CURRENT METAR :
  • 220020Z AUTO 31004KT 9999 OVC057/// 06/02 Q1031

EXPIRED METARs :
  • 212350Z AUTO 28003KT 9999 OVC060/// 06/03 Q1031
  • 212320Z AUTO 31002KT 9999 BKN071/// SCT085/// 06/02 Q1031
  • 212250Z AUTO 33003KT 9999 OVC065/// 06/02 Q1032
  • 212220Z AUTO 34003KT 9999 FEW070/// BKN085/// 06/02 Q1032
  • 212150Z AUTO 35003KT 9999 OVC076/// 06/02 Q1032
  • 212120Z AUTO 01003KT 9999 BKN079/// BKN097/// 06/02 Q1032
  • 212050Z AUTO 02004KT 9999 OVC099/// 06/02 Q1032
  • 212020Z AUTO 03004KT 9999 OVC098/// 06/01 Q1032
  • 211950Z AUTO 03004KT 9999 OVC100/// 06/01 Q1032

TAF N/A



MET'MAP, your aeronautical weather chart ! - Copyright ORBIFLY December 2007 - Disclaimer

ORBIFLY MET'MAP TEAM :

Programming & Development : Alexandra Zaïnal
Original concept : Baudouin d'Aumeries
Technical & hardware support : Manuel Goepfert
Assistance : Marc-Olivier Méhu




SOURCES & CREDITS :

   NOAA